sensor_id;sensor_type;location;lat;lon;timestamp;P1;durP1;ratioP1;P2;durP2;ratioP2
38111;SDS011;64011;56.312;44.048;2023-11-21T00:01:30;19.42;;;6.63;;
38111;SDS011;64011;56.312;44.048;2023-11-21T00:03:31;17.88;;;6.53;;
38111;SDS011;64011;56.312;44.048;2023-11-21T00:05:33;19.80;;;6.50;;
38111;SDS011;64011;56.312;44.048;2023-11-21T00:07:34;18.95;;;6.40;;
38111;SDS011;64011;56.312;44.048;2023-11-21T00:09:35;19.23;;;6.60;;
38111;SDS011;64011;56.312;44.048;2023-11-21T00:11:36;19.48;;;6.70;;
38111;SDS011;64011;56.312;44.048;2023-11-21T00:13:37;17.83;;;5.95;;
38111;SDS011;64011;56.312;44.048;2023-11-21T00:15:37;18.20;;;6.35;;
38111;SDS011;64011;56.312;44.048;2023-11-21T00:17:38;17.73;;;6.00;;
38111;SDS011;64011;56.312;44.048;2023-11-21T00:19:39;18.10;;;6.22;;
38111;SDS011;64011;56.312;44.048;2023-11-21T00:21:41;20.25;;;6.15;;
38111;SDS011;64011;56.312;44.048;2023-11-21T00:23:42;18.30;;;6.07;;
38111;SDS011;64011;56.312;44.048;2023-11-21T00:25:44;17.95;;;6.65;;
38111;SDS011;64011;56.312;44.048;2023-11-21T00:27:45;22.23;;;6.68;;
38111;SDS011;64011;56.312;44.048;2023-11-21T00:29:46;17.42;;;6.32;;
38111;SDS011;64011;56.312;44.048;2023-11-21T00:31:47;18.25;;;6.30;;
38111;SDS011;64011;56.312;44.048;2023-11-21T00:33:47;16.83;;;5.63;;
38111;SDS011;64011;56.312;44.048;2023-11-21T00:35:49;19.42;;;6.57;;
38111;SDS011;64011;56.312;44.048;2023-11-21T00:37:51;18.60;;;6.85;;
38111;SDS011;64011;56.312;44.048;2023-11-21T00:39:52;18.75;;;6.13;;
38111;SDS011;64011;56.312;44.048;2023-11-21T00:41:52;18.20;;;6.20;;
38111;SDS011;64011;56.312;44.048;2023-11-21T00:43:53;17.88;;;5.78;;
38111;SDS011;64011;56.312;44.048;2023-11-21T00:45:54;19.23;;;6.38;;
38111;SDS011;64011;56.312;44.048;2023-11-21T00:47:55;17.25;;;5.75;;
38111;SDS011;64011;56.312;44.048;2023-11-21T00:49:57;17.42;;;6.03;;
38111;SDS011;64011;56.312;44.048;2023-11-21T00:51:57;18.30;;;6.25;;
38111;SDS011;64011;56.312;44.048;2023-11-21T00:54:00;15.93;;;5.85;;
38111;SDS011;64011;56.312;44.048;2023-11-21T00:56:00;18.05;;;6.18;;
38111;SDS011;64011;56.312;44.048;2023-11-21T00:58:02;17.85;;;6.10;;
38111;SDS011;64011;56.312;44.048;2023-11-21T01:00:03;18.58;;;6.20;;
38111;SDS011;64011;56.312;44.048;2023-11-21T01:02:08;19.67;;;6.18;;
38111;SDS011;64011;56.312;44.048;2023-11-21T01:04:08;18.40;;;5.72;;
38111;SDS011;64011;56.312;44.048;2023-11-21T01:06:09;17.20;;;5.80;;
38111;SDS011;64011;56.312;44.048;2023-11-21T01:08:11;17.10;;;6.25;;
38111;SDS011;64011;56.312;44.048;2023-11-21T01:10:13;16.45;;;5.90;;
38111;SDS011;64011;56.312;44.048;2023-11-21T01:12:14;17.73;;;5.75;;
38111;SDS011;64011;56.312;44.048;2023-11-21T01:14:15;16.73;;;5.70;;
38111;SDS011;64011;56.312;44.048;2023-11-21T01:16:19;19.95;;;5.95;;
38111;SDS011;64011;56.312;44.048;2023-11-21T01:18:20;18.88;;;6.70;;
38111;SDS011;64011;56.312;44.048;2023-11-21T01:20:21;18.95;;;6.25;;
38111;SDS011;64011;56.312;44.048;2023-11-21T01:22:21;19.98;;;6.22;;
38111;SDS011;64011;56.312;44.048;2023-11-21T01:24:22;17.80;;;5.85;;
38111;SDS011;64011;56.312;44.048;2023-11-21T01:26:25;18.48;;;6.35;;
38111;SDS011;64011;56.312;44.048;2023-11-21T01:28:25;16.98;;;5.90;;
38111;SDS011;64011;56.312;44.048;2023-11-21T01:30:26;17.05;;;6.28;;
38111;SDS011;64011;56.312;44.048;2023-11-21T01:32:27;17.50;;;5.90;;
38111;SDS011;64011;56.312;44.048;2023-11-21T01:34:28;16.88;;;6.00;;
38111;SDS011;64011;56.312;44.048;2023-11-21T01:36:32;18.23;;;6.43;;
38111;SDS011;64011;56.312;44.048;2023-11-21T01:38:33;18.13;;;6.32;;
38111;SDS011;64011;56.312;44.048;2023-11-21T01:40:34;15.35;;;4.80;;
38111;SDS011;64011;56.312;44.048;2023-11-21T01:42:36;18.60;;;6.05;;
38111;SDS011;64011;56.312;44.048;2023-11-21T01:44:37;19.33;;;6.53;;
38111;SDS011;64011;56.312;44.048;2023-11-21T01:46:37;16.73;;;5.82;;
38111;SDS011;64011;56.312;44.048;2023-11-21T01:48:39;19.48;;;5.90;;
38111;SDS011;64011;56.312;44.048;2023-11-21T01:50:39;17.77;;;6.43;;
38111;SDS011;64011;56.312;44.048;2023-11-21T01:52:40;19.52;;;6.50;;
38111;SDS011;64011;56.312;44.048;2023-11-21T01:54:42;19.25;;;5.88;;
38111;SDS011;64011;56.312;44.048;2023-11-21T01:56:43;19.25;;;6.47;;
38111;SDS011;64011;56.312;44.048;2023-11-21T01:58:49;21.67;;;6.82;;
38111;SDS011;64011;56.312;44.048;2023-11-21T02:00:50;15.77;;;5.72;;
38111;SDS011;64011;56.312;44.048;2023-11-21T02:02:51;17.48;;;5.90;;
38111;SDS011;64011;56.312;44.048;2023-11-21T02:04:52;17.08;;;5.88;;
38111;SDS011;64011;56.312;44.048;2023-11-21T02:06:54;17.67;;;5.45;;
38111;SDS011;64011;56.312;44.048;2023-11-21T02:08:55;17.70;;;5.90;;
38111;SDS011;64011;56.312;44.048;2023-11-21T02:10:55;17.15;;;6.15;;
38111;SDS011;64011;56.312;44.048;2023-11-21T02:12:56;17.13;;;6.22;;
38111;SDS011;64011;56.312;44.048;2023-11-21T02:14:59;17.92;;;6.13;;
38111;SDS011;64011;56.312;44.048;2023-11-21T02:16:59;17.23;;;5.80;;
38111;SDS011;64011;56.312;44.048;2023-11-21T02:19:01;18.38;;;5.70;;
38111;SDS011;64011;56.312;44.048;2023-11-21T02:21:04;16.58;;;5.93;;
38111;SDS011;64011;56.312;44.048;2023-11-21T02:23:06;18.98;;;6.88;;
38111;SDS011;64011;56.312;44.048;2023-11-21T02:25:07;16.23;;;6.05;;
38111;SDS011;64011;56.312;44.048;2023-11-21T02:27:08;17.95;;;6.30;;
38111;SDS011;64011;56.312;44.048;2023-11-21T02:29:09;20.40;;;6.25;;
38111;SDS011;64011;56.312;44.048;2023-11-21T02:31:09;19.42;;;6.75;;
38111;SDS011;64011;56.312;44.048;2023-11-21T02:33:10;17.80;;;6.55;;
38111;SDS011;64011;56.312;44.048;2023-11-21T02:35:11;18.95;;;6.22;;
38111;SDS011;64011;56.312;44.048;2023-11-21T02:37:12;16.83;;;6.22;;
38111;SDS011;64011;56.312;44.048;2023-11-21T02:39:15;20.55;;;6.93;;
38111;SDS011;64011;56.312;44.048;2023-11-21T02:41:16;18.40;;;6.68;;
38111;SDS011;64011;56.312;44.048;2023-11-21T02:43:18;19.83;;;6.50;;
38111;SDS011;64011;56.312;44.048;2023-11-21T02:45:20;19.23;;;6.72;;
38111;SDS011;64011;56.312;44.048;2023-11-21T02:47:21;19.65;;;7.60;;
38111;SDS011;64011;56.312;44.048;2023-11-21T02:49:22;18.95;;;6.15;;
38111;SDS011;64011;56.312;44.048;2023-11-21T02:51:23;19.20;;;7.32;;
38111;SDS011;64011;56.312;44.048;2023-11-21T02:53:24;17.95;;;6.45;;
38111;SDS011;64011;56.312;44.048;2023-11-21T02:55:27;20.95;;;7.40;;
38111;SDS011;64011;56.312;44.048;2023-11-21T02:57:28;21.73;;;8.20;;
38111;SDS011;64011;56.312;44.048;2023-11-21T02:59:29;21.00;;;8.10;;
38111;SDS011;64011;56.312;44.048;2023-11-21T03:01:30;21.33;;;8.15;;
38111;SDS011;64011;56.312;44.048;2023-11-21T03:03:30;21.55;;;8.70;;
38111;SDS011;64011;56.312;44.048;2023-11-21T03:05:31;21.70;;;8.82;;
38111;SDS011;64011;56.312;44.048;2023-11-21T03:07:32;21.77;;;7.82;;
38111;SDS011;64011;56.312;44.048;2023-11-21T03:09:33;21.20;;;8.55;;
38111;SDS011;64011;56.312;44.048;2023-11-21T03:11:37;22.35;;;8.80;;
38111;SDS011;64011;56.312;44.048;2023-11-21T03:13:37;19.85;;;8.18;;
38111;SDS011;64011;56.312;44.048;2023-11-21T03:15:38;20.77;;;8.15;;
38111;SDS011;64011;56.312;44.048;2023-11-21T03:17:39;22.27;;;8.75;;
38111;SDS011;64011;56.312;44.048;2023-11-21T03:19:41;21.52;;;8.50;;
38111;SDS011;64011;56.312;44.048;2023-11-21T03:21:42;20.98;;;8.63;;
38111;SDS011;64011;56.312;44.048;2023-11-21T03:23:43;19.50;;;8.43;;
38111;SDS011;64011;56.312;44.048;2023-11-21T03:25:44;19.08;;;7.47;;
38111;SDS011;64011;56.312;44.048;2023-11-21T03:27:47;19.17;;;7.57;;
38111;SDS011;64011;56.312;44.048;2023-11-21T03:29:48;20.00;;;7.75;;
38111;SDS011;64011;56.312;44.048;2023-11-21T03:31:49;21.02;;;7.60;;
38111;SDS011;64011;56.312;44.048;2023-11-21T03:33:49;21.23;;;7.68;;
38111;SDS011;64011;56.312;44.048;2023-11-21T03:35:51;22.20;;;7.60;;
38111;SDS011;64011;56.312;44.048;2023-11-21T03:37:52;20.42;;;7.28;;
38111;SDS011;64011;56.312;44.048;2023-11-21T03:39:53;20.83;;;7.82;;
38111;SDS011;64011;56.312;44.048;2023-11-21T03:41:55;19.50;;;7.65;;
38111;SDS011;64011;56.312;44.048;2023-11-21T03:43:57;19.05;;;7.13;;
38111;SDS011;64011;56.312;44.048;2023-11-21T03:45:58;20.42;;;7.50;;
38111;SDS011;64011;56.312;44.048;2023-11-21T03:47:58;21.33;;;7.50;;
38111;SDS011;64011;56.312;44.048;2023-11-21T03:49:59;18.67;;;6.78;;
38111;SDS011;64011;56.312;44.048;2023-11-21T03:52:01;19.58;;;7.22;;
38111;SDS011;64011;56.312;44.048;2023-11-21T03:54:03;22.13;;;7.55;;
38111;SDS011;64011;56.312;44.048;2023-11-21T03:56:04;19.40;;;7.43;;
38111;SDS011;64011;56.312;44.048;2023-11-21T03:58:05;20.70;;;7.95;;
38111;SDS011;64011;56.312;44.048;2023-11-21T04:00:08;24.42;;;8.63;;
38111;SDS011;64011;56.312;44.048;2023-11-21T04:02:09;22.60;;;8.10;;
38111;SDS011;64011;56.312;44.048;2023-11-21T04:04:10;20.58;;;7.85;;
38111;SDS011;64011;56.312;44.048;2023-11-21T04:06:11;21.48;;;7.82;;
38111;SDS011;64011;56.312;44.048;2023-11-21T04:08:12;20.67;;;8.38;;
38111;SDS011;64011;56.312;44.048;2023-11-21T04:10:13;20.88;;;7.85;;
38111;SDS011;64011;56.312;44.048;2023-11-21T04:12:14;22.33;;;8.05;;
38111;SDS011;64011;56.312;44.048;2023-11-21T04:14:14;21.20;;;8.23;;
38111;SDS011;64011;56.312;44.048;2023-11-21T04:16:17;21.80;;;8.25;;
38111;SDS011;64011;56.312;44.048;2023-11-21T04:18:18;22.27;;;8.57;;
38111;SDS011;64011;56.312;44.048;2023-11-21T04:20:18;20.95;;;8.77;;
38111;SDS011;64011;56.312;44.048;2023-11-21T04:22:21;22.05;;;8.60;;
38111;SDS011;64011;56.312;44.048;2023-11-21T04:24:22;21.40;;;8.10;;
38111;SDS011;64011;56.312;44.048;2023-11-21T04:26:23;21.58;;;9.07;;
38111;SDS011;64011;56.312;44.048;2023-11-21T04:28:24;24.05;;;9.75;;
38111;SDS011;64011;56.312;44.048;2023-11-21T04:30:25;24.40;;;9.13;;
38111;SDS011;64011;56.312;44.048;2023-11-21T04:32:27;21.05;;;8.52;;
38111;SDS011;64011;56.312;44.048;2023-11-21T04:34:28;23.80;;;8.93;;
38111;SDS011;64011;56.312;44.048;2023-11-21T04:36:29;22.83;;;8.93;;
38111;SDS011;64011;56.312;44.048;2023-11-21T04:38:30;20.77;;;8.57;;
38111;SDS011;64011;56.312;44.048;2023-11-21T04:40:31;25.63;;;9.75;;
38111;SDS011;64011;56.312;44.048;2023-11-21T04:42:33;22.05;;;9.18;;
38111;SDS011;64011;56.312;44.048;2023-11-21T04:44:34;25.50;;;9.85;;
38111;SDS011;64011;56.312;44.048;2023-11-21T04:46:35;22.73;;;9.48;;
38111;SDS011;64011;56.312;44.048;2023-11-21T04:48:38;23.05;;;9.95;;
38111;SDS011;64011;56.312;44.048;2023-11-21T04:50:39;21.38;;;9.10;;
38111;SDS011;64011;56.312;44.048;2023-11-21T04:52:39;22.77;;;9.13;;
38111;SDS011;64011;56.312;44.048;2023-11-21T04:54:40;22.42;;;9.63;;
38111;SDS011;64011;56.312;44.048;2023-11-21T04:56:41;22.75;;;9.88;;
38111;SDS011;64011;56.312;44.048;2023-11-21T04:58:42;22.10;;;10.30;;
38111;SDS011;64011;56.312;44.048;2023-11-21T05:00:43;23.73;;;9.57;;
38111;SDS011;64011;56.312;44.048;2023-11-21T05:02:44;20.52;;;8.73;;
38111;SDS011;64011;56.312;44.048;2023-11-21T05:04:46;21.42;;;8.60;;
38111;SDS011;64011;56.312;44.048;2023-11-21T05:06:47;22.95;;;9.23;;
38111;SDS011;64011;56.312;44.048;2023-11-21T05:08:48;22.02;;;9.57;;
38111;SDS011;64011;56.312;44.048;2023-11-21T05:10:48;21.02;;;8.65;;
38111;SDS011;64011;56.312;44.048;2023-11-21T05:12:49;24.25;;;9.05;;
38111;SDS011;64011;56.312;44.048;2023-11-21T05:14:50;22.85;;;8.43;;
38111;SDS011;64011;56.312;44.048;2023-11-21T05:16:51;22.42;;;8.40;;
38111;SDS011;64011;56.312;44.048;2023-11-21T05:18:52;21.08;;;9.07;;
38111;SDS011;64011;56.312;44.048;2023-11-21T05:20:54;22.38;;;8.70;;
38111;SDS011;64011;56.312;44.048;2023-11-21T05:22:55;21.40;;;8.90;;
38111;SDS011;64011;56.312;44.048;2023-11-21T05:24:56;22.33;;;8.85;;
38111;SDS011;64011;56.312;44.048;2023-11-21T05:26:57;25.17;;;9.43;;
38111;SDS011;64011;56.312;44.048;2023-11-21T05:28:58;21.90;;;9.38;;
38111;SDS011;64011;56.312;44.048;2023-11-21T05:30:58;23.25;;;8.65;;
38111;SDS011;64011;56.312;44.048;2023-11-21T05:32:59;23.23;;;9.25;;
38111;SDS011;64011;56.312;44.048;2023-11-21T05:35:00;22.17;;;9.32;;
38111;SDS011;64011;56.312;44.048;2023-11-21T05:37:03;21.00;;;9.10;;
38111;SDS011;64011;56.312;44.048;2023-11-21T05:39:04;32.88;;;9.90;;
38111;SDS011;64011;56.312;44.048;2023-11-21T05:41:05;24.35;;;8.60;;
38111;SDS011;64011;56.312;44.048;2023-11-21T05:43:06;23.58;;;9.15;;
38111;SDS011;64011;56.312;44.048;2023-11-21T05:45:07;22.38;;;8.48;;
38111;SDS011;64011;56.312;44.048;2023-11-21T05:47:09;21.83;;;9.32;;
38111;SDS011;64011;56.312;44.048;2023-11-21T05:49:10;23.00;;;9.55;;
38111;SDS011;64011;56.312;44.048;2023-11-21T05:51:11;25.27;;;9.10;;
38111;SDS011;64011;56.312;44.048;2023-11-21T05:53:13;23.08;;;7.90;;
38111;SDS011;64011;56.312;44.048;2023-11-21T05:55:14;21.77;;;9.02;;
38111;SDS011;64011;56.312;44.048;2023-11-21T05:57:15;25.77;;;9.30;;
38111;SDS011;64011;56.312;44.048;2023-11-21T05:59:16;24.38;;;9.35;;
38111;SDS011;64011;56.312;44.048;2023-11-21T06:01:17;24.92;;;10.05;;
38111;SDS011;64011;56.312;44.048;2023-11-21T06:03:18;22.30;;;8.52;;
38111;SDS011;64011;56.312;44.048;2023-11-21T06:05:20;22.23;;;9.48;;
38111;SDS011;64011;56.312;44.048;2023-11-21T06:07:22;21.15;;;8.50;;
38111;SDS011;64011;56.312;44.048;2023-11-21T06:09:24;21.05;;;8.30;;
38111;SDS011;64011;56.312;44.048;2023-11-21T06:11:25;20.25;;;8.07;;
38111;SDS011;64011;56.312;44.048;2023-11-21T06:13:27;22.38;;;9.00;;
38111;SDS011;64011;56.312;44.048;2023-11-21T06:15:28;23.33;;;8.50;;
38111;SDS011;64011;56.312;44.048;2023-11-21T06:17:28;23.90;;;7.93;;
38111;SDS011;64011;56.312;44.048;2023-11-21T06:19:29;19.83;;;8.25;;
38111;SDS011;64011;56.312;44.048;2023-11-21T06:21:30;21.27;;;8.13;;
38111;SDS011;64011;56.312;44.048;2023-11-21T06:23:31;22.17;;;7.82;;
38111;SDS011;64011;56.312;44.048;2023-11-21T06:25:33;20.35;;;7.70;;
38111;SDS011;64011;56.312;44.048;2023-11-21T06:27:37;19.92;;;7.82;;
38111;SDS011;64011;56.312;44.048;2023-11-21T06:29:38;18.90;;;7.35;;
38111;SDS011;64011;56.312;44.048;2023-11-21T06:31:39;22.85;;;7.25;;
38111;SDS011;64011;56.312;44.048;2023-11-21T06:33:40;19.33;;;7.50;;
38111;SDS011;64011;56.312;44.048;2023-11-21T06:35:41;20.20;;;7.88;;
38111;SDS011;64011;56.312;44.048;2023-11-21T06:37:44;20.38;;;7.38;;
38111;SDS011;64011;56.312;44.048;2023-11-21T06:39:45;22.17;;;8.13;;
38111;SDS011;64011;56.312;44.048;2023-11-21T06:41:47;21.35;;;8.68;;
38111;SDS011;64011;56.312;44.048;2023-11-21T06:43:48;19.15;;;8.07;;
38111;SDS011;64011;56.312;44.048;2023-11-21T06:45:49;21.33;;;7.95;;
38111;SDS011;64011;56.312;44.048;2023-11-21T06:47:50;21.10;;;8.73;;
38111;SDS011;64011;56.312;44.048;2023-11-21T06:49:51;19.83;;;7.88;;
38111;SDS011;64011;56.312;44.048;2023-11-21T06:51:52;19.98;;;7.25;;
38111;SDS011;64011;56.312;44.048;2023-11-21T06:53:53;20.40;;;7.40;;
38111;SDS011;64011;56.312;44.048;2023-11-21T06:55:53;20.63;;;7.78;;
38111;SDS011;64011;56.312;44.048;2023-11-21T06:57:56;22.10;;;7.75;;
38111;SDS011;64011;56.312;44.048;2023-11-21T06:59:57;20.75;;;7.75;;
38111;SDS011;64011;56.312;44.048;2023-11-21T07:01:58;22.85;;;8.00;;
38111;SDS011;64011;56.312;44.048;2023-11-21T07:03:59;20.13;;;7.30;;
38111;SDS011;64011;56.312;44.048;2023-11-21T07:06:00;20.88;;;8.13;;
38111;SDS011;64011;56.312;44.048;2023-11-21T07:08:01;21.85;;;7.65;;
38111;SDS011;64011;56.312;44.048;2023-11-21T07:10:02;22.05;;;8.18;;
38111;SDS011;64011;56.312;44.048;2023-11-21T07:12:05;21.08;;;8.05;;
38111;SDS011;64011;56.312;44.048;2023-11-21T07:14:08;18.40;;;7.47;;
38111;SDS011;64011;56.312;44.048;2023-11-21T07:16:09;23.40;;;8.85;;
38111;SDS011;64011;56.312;44.048;2023-11-21T07:18:10;22.15;;;8.68;;
38111;SDS011;64011;56.312;44.048;2023-11-21T07:20:12;22.30;;;7.50;;
38111;SDS011;64011;56.312;44.048;2023-11-21T07:22:13;20.50;;;7.50;;
38111;SDS011;64011;56.312;44.048;2023-11-21T07:24:14;21.17;;;8.52;;
38111;SDS011;64011;56.312;44.048;2023-11-21T07:26:15;20.75;;;8.27;;
38111;SDS011;64011;56.312;44.048;2023-11-21T07:28:16;20.50;;;7.88;;
38111;SDS011;64011;56.312;44.048;2023-11-21T07:30:18;21.88;;;7.88;;
38111;SDS011;64011;56.312;44.048;2023-11-21T07:32:19;21.42;;;8.48;;
38111;SDS011;64011;56.312;44.048;2023-11-21T07:34:19;20.90;;;7.60;;
38111;SDS011;64011;56.312;44.048;2023-11-21T07:36:20;23.08;;;8.50;;
38111;SDS011;64011;56.312;44.048;2023-11-21T07:38:23;22.48;;;7.75;;
38111;SDS011;64011;56.312;44.048;2023-11-21T07:40:23;20.45;;;7.18;;
38111;SDS011;64011;56.312;44.048;2023-11-21T07:42:24;17.70;;;6.22;;
38111;SDS011;64011;56.312;44.048;2023-11-21T07:44:25;18.20;;;7.10;;
38111;SDS011;64011;56.312;44.048;2023-11-21T07:46:27;20.33;;;7.05;;
38111;SDS011;64011;56.312;44.048;2023-11-21T07:48:28;19.70;;;7.40;;
38111;SDS011;64011;56.312;44.048;2023-11-21T07:50:29;18.67;;;6.72;;
38111;SDS011;64011;56.312;44.048;2023-11-21T07:52:30;22.17;;;7.85;;
38111;SDS011;64011;56.312;44.048;2023-11-21T07:54:32;21.23;;;7.65;;
38111;SDS011;64011;56.312;44.048;2023-11-21T07:56:33;18.45;;;7.13;;
38111;SDS011;64011;56.312;44.048;2023-11-21T07:58:34;18.70;;;6.68;;
38111;SDS011;64011;56.312;44.048;2023-11-21T08:00:36;17.65;;;6.70;;
38111;SDS011;64011;56.312;44.048;2023-11-21T08:02:38;20.20;;;7.88;;
38111;SDS011;64011;56.312;44.048;2023-11-21T08:04:39;21.08;;;6.85;;
38111;SDS011;64011;56.312;44.048;2023-11-21T08:06:40;19.13;;;7.03;;
38111;SDS011;64011;56.312;44.048;2023-11-21T08:08:41;18.98;;;7.13;;
38111;SDS011;64011;56.312;44.048;2023-11-21T08:10:42;19.00;;;6.95;;
38111;SDS011;64011;56.312;44.048;2023-11-21T08:12:42;18.27;;;7.03;;
38111;SDS011;64011;56.312;44.048;2023-11-21T08:14:43;19.17;;;7.50;;
38111;SDS011;64011;56.312;44.048;2023-11-21T08:16:44;22.50;;;8.13;;
38111;SDS011;64011;56.312;44.048;2023-11-21T08:18:46;20.95;;;7.50;;
38111;SDS011;64011;56.312;44.048;2023-11-21T08:20:47;19.13;;;7.00;;
38111;SDS011;64011;56.312;44.048;2023-11-21T08:22:48;20.17;;;7.72;;
38111;SDS011;64011;56.312;44.048;2023-11-21T08:24:49;20.10;;;7.20;;
38111;SDS011;64011;56.312;44.048;2023-11-21T08:26:50;19.38;;;7.78;;
38111;SDS011;64011;56.312;44.048;2023-11-21T08:28:51;20.15;;;7.35;;
38111;SDS011;64011;56.312;44.048;2023-11-21T08:30:52;20.17;;;7.25;;
38111;SDS011;64011;56.312;44.048;2023-11-21T08:32:53;19.42;;;8.20;;
38111;SDS011;64011;56.312;44.048;2023-11-21T08:34:55;21.23;;;7.90;;
38111;SDS011;64011;56.312;44.048;2023-11-21T08:36:56;19.65;;;7.05;;
38111;SDS011;64011;56.312;44.048;2023-11-21T08:38:56;19.95;;;7.88;;
38111;SDS011;64011;56.312;44.048;2023-11-21T08:40:57;20.33;;;7.28;;
38111;SDS011;64011;56.312;44.048;2023-11-21T08:42:58;19.05;;;7.53;;
38111;SDS011;64011;56.312;44.048;2023-11-21T08:44:59;19.55;;;7.25;;
38111;SDS011;64011;56.312;44.048;2023-11-21T08:47:00;20.20;;;7.88;;
38111;SDS011;64011;56.312;44.048;2023-11-21T08:49:01;20.73;;;8.10;;
38111;SDS011;64011;56.312;44.048;2023-11-21T08:51:04;19.77;;;6.93;;
38111;SDS011;64011;56.312;44.048;2023-11-21T08:53:05;20.08;;;7.35;;
38111;SDS011;64011;56.312;44.048;2023-11-21T08:55:06;21.92;;;7.72;;
38111;SDS011;64011;56.312;44.048;2023-11-21T08:57:07;21.70;;;8.27;;
38111;SDS011;64011;56.312;44.048;2023-11-21T08:59:08;21.60;;;7.65;;
38111;SDS011;64011;56.312;44.048;2023-11-21T09:01:09;22.08;;;7.57;;
38111;SDS011;64011;56.312;44.048;2023-11-21T09:03:10;22.35;;;7.75;;
38111;SDS011;64011;56.312;44.048;2023-11-21T09:05:11;19.95;;;7.57;;
38111;SDS011;64011;56.312;44.048;2023-11-21T09:07:14;18.83;;;7.22;;
38111;SDS011;64011;56.312;44.048;2023-11-21T09:09:15;21.00;;;7.47;;
38111;SDS011;64011;56.312;44.048;2023-11-21T09:11:16;19.38;;;7.80;;
38111;SDS011;64011;56.312;44.048;2023-11-21T09:13:17;21.50;;;8.05;;
38111;SDS011;64011;56.312;44.048;2023-11-21T09:15:18;22.85;;;8.10;;
38111;SDS011;64011;56.312;44.048;2023-11-21T09:17:19;21.17;;;8.43;;
38111;SDS011;64011;56.312;44.048;2023-11-21T09:19:20;22.35;;;8.73;;
38111;SDS011;64011;56.312;44.048;2023-11-21T09:21:21;20.65;;;8.13;;
38111;SDS011;64011;56.312;44.048;2023-11-21T09:23:23;21.40;;;8.65;;
38111;SDS011;64011;56.312;44.048;2023-11-21T09:25:24;21.17;;;7.93;;
38111;SDS011;64011;56.312;44.048;2023-11-21T09:27:25;22.83;;;8.55;;
38111;SDS011;64011;56.312;44.048;2023-11-21T09:29:26;21.63;;;8.38;;
38111;SDS011;64011;56.312;44.048;2023-11-21T09:31:27;22.80;;;8.65;;
38111;SDS011;64011;56.312;44.048;2023-11-21T09:33:28;21.08;;;8.32;;
38111;SDS011;64011;56.312;44.048;2023-11-21T09:35:29;21.35;;;8.27;;
38111;SDS011;64011;56.312;44.048;2023-11-21T09:37:30;23.80;;;8.13;;
38111;SDS011;64011;56.312;44.048;2023-11-21T09:39:33;21.17;;;8.13;;
38111;SDS011;64011;56.312;44.048;2023-11-21T09:41:37;20.83;;;7.40;;
38111;SDS011;64011;56.312;44.048;2023-11-21T09:43:43;21.20;;;7.70;;
38111;SDS011;64011;56.312;44.048;2023-11-21T09:45:45;20.02;;;8.10;;
38111;SDS011;64011;56.312;44.048;2023-11-21T09:47:47;21.38;;;8.77;;
38111;SDS011;64011;56.312;44.048;2023-11-21T09:49:48;22.10;;;7.85;;
38111;SDS011;64011;56.312;44.048;2023-11-21T09:51:50;20.58;;;7.88;;
38111;SDS011;64011;56.312;44.048;2023-11-21T09:53:54;21.15;;;7.63;;
38111;SDS011;64011;56.312;44.048;2023-11-21T09:55:57;20.48;;;7.90;;
38111;SDS011;64011;56.312;44.048;2023-11-21T09:57:58;21.92;;;7.50;;
38111;SDS011;64011;56.312;44.048;2023-11-21T09:59:58;20.55;;;7.80;;
38111;SDS011;64011;56.312;44.048;2023-11-21T10:02:05;20.50;;;8.05;;
38111;SDS011;64011;56.312;44.048;2023-11-21T10:04:07;18.38;;;7.13;;
38111;SDS011;64011;56.312;44.048;2023-11-21T10:06:08;20.83;;;7.38;;
38111;SDS011;64011;56.312;44.048;2023-11-21T10:08:09;23.05;;;8.05;;
38111;SDS011;64011;56.312;44.048;2023-11-21T10:10:11;22.42;;;7.65;;
38111;SDS011;64011;56.312;44.048;2023-11-21T10:12:13;22.27;;;7.28;;
38111;SDS011;64011;56.312;44.048;2023-11-21T10:14:15;21.23;;;7.95;;
38111;SDS011;64011;56.312;44.048;2023-11-21T10:16:18;22.98;;;7.75;;
38111;SDS011;64011;56.312;44.048;2023-11-21T10:18:19;19.83;;;6.90;;
38111;SDS011;64011;56.312;44.048;2023-11-21T10:20:20;20.05;;;7.55;;
38111;SDS011;64011;56.312;44.048;2023-11-21T10:22:21;16.83;;;7.07;;
38111;SDS011;64011;56.312;44.048;2023-11-21T10:24:22;18.60;;;6.85;;
38111;SDS011;64011;56.312;44.048;2023-11-21T10:26:23;19.88;;;6.50;;
38111;SDS011;64011;56.312;44.048;2023-11-21T10:28:25;19.10;;;7.35;;
38111;SDS011;64011;56.312;44.048;2023-11-21T10:30:31;19.63;;;7.32;;
38111;SDS011;64011;56.312;44.048;2023-11-21T10:32:33;22.05;;;7.65;;
38111;SDS011;64011;56.312;44.048;2023-11-21T10:34:35;19.02;;;6.88;;
38111;SDS011;64011;56.312;44.048;2023-11-21T10:36:36;22.00;;;7.70;;
38111;SDS011;64011;56.312;44.048;2023-11-21T10:38:41;18.90;;;7.45;;
38111;SDS011;64011;56.312;44.048;2023-11-21T10:40:43;19.15;;;6.95;;
38111;SDS011;64011;56.312;44.048;2023-11-21T10:42:44;20.58;;;7.18;;
38111;SDS011;64011;56.312;44.048;2023-11-21T10:44:47;19.08;;;6.80;;
38111;SDS011;64011;56.312;44.048;2023-11-21T10:46:49;20.15;;;7.00;;
38111;SDS011;64011;56.312;44.048;2023-11-21T10:48:52;18.77;;;6.90;;
38111;SDS011;64011;56.312;44.048;2023-11-21T10:50:53;20.38;;;7.55;;
38111;SDS011;64011;56.312;44.048;2023-11-21T10:52:55;18.85;;;7.30;;
38111;SDS011;64011;56.312;44.048;2023-11-21T10:54:56;18.65;;;7.10;;
38111;SDS011;64011;56.312;44.048;2023-11-21T10:56:57;18.98;;;7.07;;
38111;SDS011;64011;56.312;44.048;2023-11-21T10:58:58;20.60;;;7.20;;
38111;SDS011;64011;56.312;44.048;2023-11-21T11:01:01;19.17;;;7.00;;
38111;SDS011;64011;56.312;44.048;2023-11-21T11:03:02;19.45;;;7.63;;
38111;SDS011;64011;56.312;44.048;2023-11-21T11:05:04;19.10;;;6.93;;
38111;SDS011;64011;56.312;44.048;2023-11-21T11:07:05;18.50;;;6.88;;
38111;SDS011;64011;56.312;44.048;2023-11-21T11:09:09;20.33;;;7.45;;
38111;SDS011;64011;56.312;44.048;2023-11-21T11:11:11;18.65;;;6.70;;
38111;SDS011;64011;56.312;44.048;2023-11-21T11:13:12;18.55;;;6.78;;
38111;SDS011;64011;56.312;44.048;2023-11-21T11:15:13;19.42;;;6.63;;
38111;SDS011;64011;56.312;44.048;2023-11-21T11:17:17;19.15;;;7.15;;
38111;SDS011;64011;56.312;44.048;2023-11-21T11:19:20;19.80;;;7.68;;
38111;SDS011;64011;56.312;44.048;2023-11-21T11:21:26;21.52;;;8.02;;
38111;SDS011;64011;56.312;44.048;2023-11-21T11:23:34;20.42;;;7.47;;
38111;SDS011;64011;56.312;44.048;2023-11-21T11:25:49;21.17;;;7.50;;
38111;SDS011;64011;56.312;44.048;2023-11-21T11:27:59;18.92;;;6.85;;
38111;SDS011;64011;56.312;44.048;2023-11-21T11:30:06;18.67;;;7.47;;
38111;SDS011;64011;56.312;44.048;2023-11-21T11:32:14;18.63;;;7.35;;
38111;SDS011;64011;56.312;44.048;2023-11-21T11:34:23;19.52;;;7.13;;
38111;SDS011;64011;56.312;44.048;2023-11-21T11:36:29;20.65;;;7.65;;
38111;SDS011;64011;56.312;44.048;2023-11-21T11:38:35;17.98;;;6.75;;
38111;SDS011;64011;56.312;44.048;2023-11-21T11:40:38;19.67;;;6.65;;
38111;SDS011;64011;56.312;44.048;2023-11-21T11:42:39;17.95;;;6.60;;
38111;SDS011;64011;56.312;44.048;2023-11-21T11:44:56;19.80;;;6.78;;
38111;SDS011;64011;56.312;44.048;2023-11-21T11:46:57;19.17;;;6.80;;
38111;SDS011;64011;56.312;44.048;2023-11-21T11:49:03;18.10;;;6.72;;
38111;SDS011;64011;56.312;44.048;2023-11-21T11:51:04;18.90;;;6.63;;